createdAt,value
2018-08-07T00:00:52.455Z,21.90
2018-08-07T00:15:52.378Z,21.79
2018-08-07T00:30:50.927Z,21.70
2018-08-07T00:45:52.848Z,21.52
2018-08-07T01:00:50.932Z,21.32
2018-08-07T01:15:50.975Z,21.26
2018-08-07T01:30:51.181Z,21.20
2018-08-07T01:45:57.246Z,21.09
2018-08-07T02:00:51.757Z,20.85
2018-08-07T02:15:51.256Z,20.75
2018-08-07T02:45:50.616Z,20.52
2018-08-07T03:00:50.339Z,22.96
2018-08-07T03:15:50.234Z,23.87
2018-08-07T03:30:50.691Z,24.27
2018-08-07T03:45:54.311Z,23.97
2018-08-07T04:00:56.569Z,24.35
2018-08-07T04:15:56.260Z,24.83
2018-08-07T04:30:56.338Z,25.33
2018-08-07T04:45:51.506Z,25.77
2018-08-07T05:00:51.436Z,26.39
2018-08-07T05:15:59.755Z,27.00
2018-08-07T05:30:53.456Z,27.59
2018-08-07T05:45:51.668Z,27.98
2018-08-07T06:00:51.102Z,28.44
2018-08-07T06:15:50.511Z,29.15
2018-08-07T06:30:51.213Z,29.70
2018-08-07T06:45:51.099Z,30.57
2018-08-07T07:00:52.985Z,31.61
2018-08-07T07:15:50.460Z,32.54
2018-08-07T07:30:50.479Z,33.55
2018-08-07T09:00:50.442Z,35.52
2018-08-07T09:30:51.195Z,35.94
2018-08-07T11:00:50.636Z,28.54
2018-08-07T12:00:50.919Z,32.93
2018-08-07T12:15:50.976Z,32.61
2018-08-07T12:30:52.744Z,32.40
2018-08-07T12:45:52.464Z,32.09
2018-08-07T13:00:50.363Z,31.68
2018-08-07T13:15:51.163Z,31.64
2018-08-07T13:30:50.845Z,31.20
2018-08-07T13:45:50.805Z,30.67
2018-08-07T14:00:51.358Z,30.13
2018-08-07T14:15:50.785Z,29.72
2018-08-07T14:30:51.249Z,29.43
2018-08-07T14:45:54.962Z,29.27
2018-08-07T15:00:51.229Z,29.14
2018-08-07T15:15:54.677Z,29.00
2018-08-07T15:30:51.091Z,28.76
2018-08-07T15:45:50.534Z,28.67
2018-08-07T16:00:50.551Z,28.53
2018-08-07T16:15:50.582Z,28.44
2018-08-07T16:30:51.498Z,28.35
2018-08-07T16:45:50.979Z,28.28
2018-08-07T17:00:50.451Z,28.00
2018-08-07T17:15:50.938Z,27.69
2018-08-07T17:30:50.378Z,27.48
2018-08-07T17:45:50.254Z,27.45
2018-08-07T18:00:50.359Z,27.39
2018-08-07T18:15:50.179Z,27.30
2018-08-07T18:30:50.640Z,27.26
2018-08-07T18:45:50.989Z,27.27
2018-08-07T19:00:50.738Z,27.04
2018-08-07T19:15:50.466Z,26.78
2018-08-07T19:30:51.751Z,26.66
2018-08-07T19:45:51.509Z,26.63
2018-08-07T20:00:51.591Z,26.40
2018-08-07T20:15:50.465Z,26.58
2018-08-07T20:30:51.448Z,26.46
2018-08-07T20:45:50.901Z,26.29
2018-08-07T21:00:52.351Z,25.68
2018-08-07T21:15:50.427Z,26.02
2018-08-07T21:30:50.841Z,26.22
2018-08-07T21:45:50.835Z,26.28
2018-08-07T22:00:51.609Z,26.30
2018-08-07T22:15:50.747Z,26.19
2018-08-07T22:30:50.253Z,26.13
2018-08-07T22:45:49.208Z,26.07
2018-08-07T23:00:49.151Z,25.98
2018-08-07T23:15:49.564Z,26.00
2018-08-07T23:30:50.611Z,25.93
2018-08-07T23:45:50.508Z,25.84
